Terminal Aerodrome Forecast
Issued by NWS Twin Cities, MN

Home | Current Version | Previous Version | Graphics & Text | Print | Product List | Glossary On
Versions: 1 2 3 4 5 6 7 8 9 10 11 12 13 14 15 16 17 18 19 20 21 22 23 24
000
FTUS43 KMPX 182300
TAFMSP
TAF
KMSP 182334Z 1900/2006 26009KT P6SM VCTS SCT050CB BKN090
      TEMPO 1901/1903 TSRA BKN050CB
     FM190300 27005KT P6SM SCT060
     FM190900 28004KT 6SM BR BKN020
     FM191200 30007KT P6SM FEW025 SCT200
     FM191900 31009KT P6SM SCT200=

USA.gov is the U.S. government's official web portal to all federal, state and local government web resources and services.